sensor_id;sensor_type;location;lat;lon;timestamp;pressure;altitude;pressure_sealevel;temperature;humidity
50105;BME280;47690;39.202;-77.198;2023-02-23T00:01:24;99754.03;;;39.11;8.34
50105;BME280;47690;39.202;-77.198;2023-02-23T00:04:04;99748.94;;;38.84;8.23
50105;BME280;47690;39.202;-77.198;2023-02-23T00:06:37;99740.66;;;38.60;8.39
50105;BME280;47690;39.202;-77.198;2023-02-23T00:09:09;99733.97;;;38.44;8.82
50105;BME280;47690;39.202;-77.198;2023-02-23T00:11:54;99729.53;;;38.56;8.30
50105;BME280;47690;39.202;-77.198;2023-02-23T00:14:37;99716.91;;;38.57;8.69
50105;BME280;47690;39.202;-77.198;2023-02-23T00:17:12;99692.31;;;38.53;8.82
50105;BME280;47690;39.202;-77.198;2023-02-23T00:19:48;99674.22;;;38.60;8.30
50105;BME280;47690;39.202;-77.198;2023-02-23T00:22:29;99669.53;;;38.56;8.51
50105;BME280;47690;39.202;-77.198;2023-02-23T00:25:10;99668.63;;;38.62;8.72
50105;BME280;47690;39.202;-77.198;2023-02-23T00:27:43;99667.81;;;38.61;8.57
50105;BME280;47690;39.202;-77.198;2023-02-23T00:30:20;99678.94;;;38.65;8.70
50105;BME280;47690;39.202;-77.198;2023-02-23T00:32:52;99678.59;;;38.80;8.73
50105;BME280;47690;39.202;-77.198;2023-02-23T00:35:37;99699.72;;;38.95;8.89
50105;BME280;47690;39.202;-77.198;2023-02-23T00:38:20;99704.31;;;38.94;8.34
50105;BME280;47690;39.202;-77.198;2023-02-23T00:41:09;99710.72;;;38.93;8.48
50105;BME280;47690;39.202;-77.198;2023-02-23T00:43:46;99691.50;;;38.90;8.37
50105;BME280;47690;39.202;-77.198;2023-02-23T00:46:32;99688.88;;;38.83;8.68
50105;BME280;47690;39.202;-77.198;2023-02-23T00:49:03;99679.31;;;38.69;8.90
50105;BME280;47690;39.202;-77.198;2023-02-23T00:51:54;99682.81;;;38.88;9.01
50105;BME280;47690;39.202;-77.198;2023-02-23T00:54:44;99677.22;;;38.89;8.46
50105;BME280;47690;39.202;-77.198;2023-02-23T00:57:20;99666.97;;;38.79;8.85
50105;BME280;47690;39.202;-77.198;2023-02-23T01:00:02;99680.34;;;38.86;8.91
50105;BME280;47690;39.202;-77.198;2023-02-23T01:03:04;99674.44;;;38.96;8.84
50105;BME280;47690;39.202;-77.198;2023-02-23T01:05:39;99690.09;;;38.87;8.59
50105;BME280;47690;39.202;-77.198;2023-02-23T01:08:13;99699.56;;;38.71;8.77
50105;BME280;47690;39.202;-77.198;2023-02-23T01:10:52;99684.31;;;38.65;9.01
50105;BME280;47690;39.202;-77.198;2023-02-23T01:13:35;99714.13;;;38.63;9.03
50105;BME280;47690;39.202;-77.198;2023-02-23T01:16:17;99682.97;;;38.74;9.21
50105;BME280;47690;39.202;-77.198;2023-02-23T01:18:49;99707.09;;;38.62;8.62
50105;BME280;47690;39.202;-77.198;2023-02-23T01:21:37;99701.56;;;38.57;9.28
50105;BME280;47690;39.202;-77.198;2023-02-23T01:24:13;99706.53;;;38.60;8.67
50105;BME280;47690;39.202;-77.198;2023-02-23T01:26:49;99693.88;;;38.61;9.20
50105;BME280;47690;39.202;-77.198;2023-02-23T01:29:21;99690.66;;;38.52;8.87
50105;BME280;47690;39.202;-77.198;2023-02-23T01:32:06;99700.25;;;38.66;9.05
50105;BME280;47690;39.202;-77.198;2023-02-23T01:34:44;99690.59;;;38.59;8.79
50105;BME280;47690;39.202;-77.198;2023-02-23T01:37:23;99687.47;;;38.62;9.21
50105;BME280;47690;39.202;-77.198;2023-02-23T01:40:11;99698.28;;;38.55;9.16
50105;BME280;47690;39.202;-77.198;2023-02-23T01:42:49;99692.09;;;38.55;8.87
50105;BME280;47690;39.202;-77.198;2023-02-23T01:45:37;99696.13;;;38.64;9.32
50105;BME280;47690;39.202;-77.198;2023-02-23T01:48:18;99697.94;;;38.70;9.26
50105;BME280;47690;39.202;-77.198;2023-02-23T01:53:36;99684.09;;;38.66;9.20
50105;BME280;47690;39.202;-77.198;2023-02-23T01:56:17;99710.19;;;38.66;8.95
50105;BME280;47690;39.202;-77.198;2023-02-23T01:59:04;99706.75;;;38.77;9.39
50105;BME280;47690;39.202;-77.198;2023-02-23T02:01:41;99707.66;;;38.90;8.99
50105;BME280;47690;39.202;-77.198;2023-02-23T02:04:24;99710.75;;;40.04;8.45
50105;BME280;47690;39.202;-77.198;2023-02-23T02:07:07;99705.81;;;40.01;8.42
50105;BME280;47690;39.202;-77.198;2023-02-23T02:09:57;99704.47;;;40.34;8.09
50105;BME280;47690;39.202;-77.198;2023-02-23T02:13:26;99706.59;;;40.80;8.43
50105;BME280;47690;39.202;-77.198;2023-02-23T02:22:09;99722.78;;;38.91;8.98
50105;BME280;47690;39.202;-77.198;2023-02-23T02:48:56;99722.69;;;39.35;8.99
50105;BME280;47690;39.202;-77.198;2023-02-23T02:57:52;99701.03;;;40.03;8.69
50105;BME280;47690;39.202;-77.198;2023-02-23T03:03:42;99667.03;;;40.02;8.70
50105;BME280;47690;39.202;-77.198;2023-02-23T03:19:47;99665.78;;;38.75;9.25
50105;BME280;47690;39.202;-77.198;2023-02-23T03:25:06;99663.78;;;38.45;9.27
50105;BME280;47690;39.202;-77.198;2023-02-23T03:30:39;99659.75;;;38.36;9.51
50105;BME280;47690;39.202;-77.198;2023-02-23T03:40:33;99607.13;;;38.21;9.31
50105;BME280;47690;39.202;-77.198;2023-02-23T03:45:16;99571.38;;;37.95;9.32
50105;BME280;47690;39.202;-77.198;2023-02-23T03:50:23;99558.44;;;38.11;9.66
50105;BME280;47690;39.202;-77.198;2023-02-23T03:55:42;99568.09;;;37.93;9.47
50105;BME280;47690;39.202;-77.198;2023-02-23T04:01:15;99558.06;;;37.82;9.60
50105;BME280;47690;39.202;-77.198;2023-02-23T04:10:33;99496.31;;;38.57;9.14
50105;BME280;47690;39.202;-77.198;2023-02-23T04:17:45;99506.88;;;37.19;9.60
50105;BME280;47690;39.202;-77.198;2023-02-23T04:20:21;99503.28;;;37.00;9.46
50105;BME280;47690;39.202;-77.198;2023-02-23T04:23:01;99520.91;;;36.82;9.96
50105;BME280;47690;39.202;-77.198;2023-02-23T04:25:36;99513.53;;;36.71;9.58
50105;BME280;47690;39.202;-77.198;2023-02-23T04:28:13;99525.50;;;36.68;9.62
50105;BME280;47690;39.202;-77.198;2023-02-23T04:30:48;99521.41;;;36.66;10.11
50105;BME280;47690;39.202;-77.198;2023-02-23T04:33:21;99516.47;;;36.62;9.81
50105;BME280;47690;39.202;-77.198;2023-02-23T04:36:09;99500.72;;;36.73;9.97
50105;BME280;47690;39.202;-77.198;2023-02-23T04:38:46;99509.41;;;36.68;10.04
50105;BME280;47690;39.202;-77.198;2023-02-23T04:41:16;99516.03;;;36.66;10.04
50105;BME280;47690;39.202;-77.198;2023-02-23T04:43:48;99540.78;;;36.68;9.86
50105;BME280;47690;39.202;-77.198;2023-02-23T04:46:21;99534.38;;;36.69;9.56
50105;BME280;47690;39.202;-77.198;2023-02-23T04:49:05;99531.53;;;36.63;10.12
50105;BME280;47690;39.202;-77.198;2023-02-23T04:51:40;99543.06;;;36.71;10.02
50105;BME280;47690;39.202;-77.198;2023-02-23T04:54:14;99530.03;;;36.68;9.72
50105;BME280;47690;39.202;-77.198;2023-02-23T04:56:46;99523.34;;;38.06;9.34
50105;BME280;47690;39.202;-77.198;2023-02-23T04:59:21;99529.44;;;37.43;9.42
50105;BME280;47690;39.202;-77.198;2023-02-23T05:02:33;99539.34;;;37.43;9.57
50105;BME280;47690;39.202;-77.198;2023-02-23T05:05:04;99546.59;;;37.03;9.55
50105;BME280;47690;39.202;-77.198;2023-02-23T05:07:37;99546.28;;;36.86;9.87
50105;BME280;47690;39.202;-77.198;2023-02-23T05:10:10;99548.41;;;36.71;10.05
50105;BME280;47690;39.202;-77.198;2023-02-23T05:12:44;99542.81;;;36.72;10.02
50105;BME280;47690;39.202;-77.198;2023-02-23T05:15:16;99535.56;;;37.18;9.92
50105;BME280;47690;39.202;-77.198;2023-02-23T05:17:50;99541.81;;;37.12;9.31
50105;BME280;47690;39.202;-77.198;2023-02-23T05:20:33;99543.53;;;37.00;10.00
50105;BME280;47690;39.202;-77.198;2023-02-23T05:23:04;99541.13;;;36.85;10.17
50105;BME280;47690;39.202;-77.198;2023-02-23T05:25:37;99525.06;;;36.78;10.06
50105;BME280;47690;39.202;-77.198;2023-02-23T05:28:10;99549.81;;;36.80;9.81
50105;BME280;47690;39.202;-77.198;2023-02-23T05:30:43;99524.81;;;36.80;9.67
50105;BME280;47690;39.202;-77.198;2023-02-23T05:33:14;99527.31;;;36.81;9.80
50105;BME280;47690;39.202;-77.198;2023-02-23T05:35:48;99493.19;;;36.95;9.80
50105;BME280;47690;39.202;-77.198;2023-02-23T05:38:37;99484.03;;;37.10;9.91
50105;BME280;47690;39.202;-77.198;2023-02-23T05:41:21;99467.53;;;37.06;10.20
50105;BME280;47690;39.202;-77.198;2023-02-23T05:44:10;99453.41;;;37.17;10.13
50105;BME280;47690;39.202;-77.198;2023-02-23T05:46:50;99478.50;;;37.30;9.56
50105;BME280;47690;39.202;-77.198;2023-02-23T05:49:24;99466.38;;;36.88;9.97
50105;BME280;47690;39.202;-77.198;2023-02-23T05:52:04;99494.25;;;36.87;10.18
50105;BME280;47690;39.202;-77.198;2023-02-23T05:54:42;99496.34;;;36.85;10.20
50105;BME280;47690;39.202;-77.198;2023-02-23T05:57:18;99473.03;;;36.79;9.90
50105;BME280;47690;39.202;-77.198;2023-02-23T05:59:50;99481.09;;;36.79;10.06
50105;BME280;47690;39.202;-77.198;2023-02-23T06:02:35;99496.16;;;36.80;9.94
50105;BME280;47690;39.202;-77.198;2023-02-23T06:05:13;99503.53;;;36.92;9.79
50105;BME280;47690;39.202;-77.198;2023-02-23T06:07:45;99500.66;;;36.86;10.10
50105;BME280;47690;39.202;-77.198;2023-02-23T06:10:16;99512.81;;;36.89;10.03
50105;BME280;47690;39.202;-77.198;2023-02-23T06:12:48;99507.22;;;36.90;10.31
50105;BME280;47690;39.202;-77.198;2023-02-23T06:15:21;99497.94;;;36.93;9.91
50105;BME280;47690;39.202;-77.198;2023-02-23T06:17:53;99487.63;;;36.90;10.32
50105;BME280;47690;39.202;-77.198;2023-02-23T06:20:33;99471.94;;;36.94;10.28
50105;BME280;47690;39.202;-77.198;2023-02-23T06:23:08;99468.84;;;36.90;10.23
50105;BME280;47690;39.202;-77.198;2023-02-23T06:25:46;99449.88;;;36.92;10.44
50105;BME280;47690;39.202;-77.198;2023-02-23T06:28:20;99424.66;;;36.93;9.84
50105;BME280;47690;39.202;-77.198;2023-02-23T06:30:54;99417.00;;;36.96;9.98
50105;BME280;47690;39.202;-77.198;2023-02-23T06:33:34;99393.16;;;37.13;10.04
50105;BME280;47690;39.202;-77.198;2023-02-23T06:36:13;99395.56;;;37.22;10.54
50105;BME280;47690;39.202;-77.198;2023-02-23T06:38:47;99417.47;;;37.18;9.74
50105;BME280;47690;39.202;-77.198;2023-02-23T06:41:17;99405.31;;;37.16;9.69
50105;BME280;47690;39.202;-77.198;2023-02-23T06:43:49;99395.84;;;37.07;9.82
50105;BME280;47690;39.202;-77.198;2023-02-23T06:46:37;99403.38;;;37.23;10.26
50105;BME280;47690;39.202;-77.198;2023-02-23T06:49:15;99394.56;;;37.16;9.92
50105;BME280;47690;39.202;-77.198;2023-02-23T06:51:48;99393.59;;;37.10;9.67
50105;BME280;47690;39.202;-77.198;2023-02-23T06:54:20;99382.44;;;37.13;10.01
50105;BME280;47690;39.202;-77.198;2023-02-23T06:56:53;99375.44;;;37.06;10.01
50105;BME280;47690;39.202;-77.198;2023-02-23T06:59:36;99389.53;;;36.94;9.92
50105;BME280;47690;39.202;-77.198;2023-02-23T07:02:13;99405.44;;;36.96;9.85
50105;BME280;47690;39.202;-77.198;2023-02-23T07:04:44;99384.44;;;36.86;9.97
50105;BME280;47690;39.202;-77.198;2023-02-23T07:07:16;99392.19;;;36.75;10.34
50105;BME280;47690;39.202;-77.198;2023-02-23T07:09:48;99398.00;;;36.66;10.05
50105;BME280;47690;39.202;-77.198;2023-02-23T07:12:20;99402.13;;;36.68;10.21
50105;BME280;47690;39.202;-77.198;2023-02-23T07:14:53;99390.63;;;36.61;10.47
50105;BME280;47690;39.202;-77.198;2023-02-23T07:17:34;99383.56;;;36.67;10.18
50105;BME280;47690;39.202;-77.198;2023-02-23T07:20:16;99375.25;;;36.75;10.08
50105;BME280;47690;39.202;-77.198;2023-02-23T07:22:48;99378.16;;;36.73;10.04
50105;BME280;47690;39.202;-77.198;2023-02-23T07:25:21;99378.59;;;36.70;10.25
50105;BME280;47690;39.202;-77.198;2023-02-23T07:28:01;99365.75;;;36.72;10.08
50105;BME280;47690;39.202;-77.198;2023-02-23T07:30:34;99377.81;;;36.63;10.28
50105;BME280;47690;39.202;-77.198;2023-02-23T07:33:12;99360.00;;;36.69;10.08
50105;BME280;47690;39.202;-77.198;2023-02-23T07:35:48;99373.03;;;36.65;10.15
50105;BME280;47690;39.202;-77.198;2023-02-23T07:38:21;99350.63;;;36.53;10.28
50105;BME280;47690;39.202;-77.198;2023-02-23T07:40:53;99330.44;;;36.50;10.58
50105;BME280;47690;39.202;-77.198;2023-02-23T07:43:36;99333.94;;;36.50;10.26
50105;BME280;47690;39.202;-77.198;2023-02-23T07:46:08;99338.69;;;36.48;10.36
50105;BME280;47690;39.202;-77.198;2023-02-23T07:48:48;99334.81;;;36.44;10.34
50105;BME280;47690;39.202;-77.198;2023-02-23T07:51:20;99335.44;;;36.40;10.12
50105;BME280;47690;39.202;-77.198;2023-02-23T07:53:54;99330.09;;;36.40;10.19
50105;BME280;47690;39.202;-77.198;2023-02-23T07:56:36;99334.56;;;36.46;10.48
50105;BME280;47690;39.202;-77.198;2023-02-23T07:59:13;99321.66;;;36.36;10.25
50105;BME280;47690;39.202;-77.198;2023-02-23T08:01:52;99308.47;;;36.28;10.22
50105;BME280;47690;39.202;-77.198;2023-02-23T08:04:32;99319.06;;;36.16;10.28
50105;BME280;47690;39.202;-77.198;2023-02-23T08:07:05;99320.97;;;36.08;10.33
50105;BME280;47690;39.202;-77.198;2023-02-23T08:09:40;99311.28;;;36.14;10.46
50105;BME280;47690;39.202;-77.198;2023-02-23T08:12:17;99312.72;;;36.10;10.29
50105;BME280;47690;39.202;-77.198;2023-02-23T08:14:48;99302.03;;;36.03;10.59
50105;BME280;47690;39.202;-77.198;2023-02-23T08:17:20;99297.50;;;35.97;10.40
50105;BME280;47690;39.202;-77.198;2023-02-23T08:19:53;99308.22;;;35.97;10.43
50105;BME280;47690;39.202;-77.198;2023-02-23T08:22:33;99312.97;;;35.95;10.22
50105;BME280;47690;39.202;-77.198;2023-02-23T08:25:36;99314.97;;;36.06;10.78
50105;BME280;47690;39.202;-77.198;2023-02-23T08:28:08;99303.69;;;35.98;10.26
50105;BME280;47690;39.202;-77.198;2023-02-23T08:30:44;99293.84;;;37.13;10.07
50105;BME280;47690;39.202;-77.198;2023-02-23T08:33:16;99300.81;;;36.38;9.92
50105;BME280;47690;39.202;-77.198;2023-02-23T08:35:48;99300.97;;;36.04;9.97
50105;BME280;47690;39.202;-77.198;2023-02-23T08:38:20;99303.69;;;35.98;10.63
50105;BME280;47690;39.202;-77.198;2023-02-23T08:41:05;99297.47;;;36.04;10.66
50105;BME280;47690;39.202;-77.198;2023-02-23T08:43:36;99296.09;;;35.94;10.48
50105;BME280;47690;39.202;-77.198;2023-02-23T08:46:12;99308.09;;;35.85;10.44
50105;BME280;47690;39.202;-77.198;2023-02-23T08:48:49;99294.84;;;35.90;10.70
50105;BME280;47690;39.202;-77.198;2023-02-23T08:51:32;99277.78;;;35.85;10.31
50105;BME280;47690;39.202;-77.198;2023-02-23T08:54:40;99272.81;;;35.88;10.31
50105;BME280;47690;39.202;-77.198;2023-02-23T08:57:12;99281.38;;;35.65;10.64
50105;BME280;47690;39.202;-77.198;2023-02-23T08:59:44;99290.03;;;35.60;10.68
50105;BME280;47690;39.202;-77.198;2023-02-23T09:02:20;99268.19;;;35.57;10.77
50105;BME280;47690;39.202;-77.198;2023-02-23T09:05:14;99292.47;;;35.75;10.72
50105;BME280;47690;39.202;-77.198;2023-02-23T09:07:46;99302.19;;;35.70;10.42
50105;BME280;47690;39.202;-77.198;2023-02-23T09:10:20;99299.50;;;35.63;10.70
50105;BME280;47690;39.202;-77.198;2023-02-23T09:13:01;99296.44;;;35.59;10.65
50105;BME280;47690;39.202;-77.198;2023-02-23T09:16:08;99300.94;;;35.65;10.60
50105;BME280;47690;39.202;-77.198;2023-02-23T09:18:44;99318.25;;;35.63;10.78
50105;BME280;47690;39.202;-77.198;2023-02-23T09:21:18;99314.13;;;35.53;10.60
50105;BME280;47690;39.202;-77.198;2023-02-23T09:23:53;99325.69;;;35.61;10.50
50105;BME280;47690;39.202;-77.198;2023-02-23T09:26:38;99327.13;;;35.63;10.39
50105;BME280;47690;39.202;-77.198;2023-02-23T09:29:17;99339.47;;;35.58;10.35
50105;BME280;47690;39.202;-77.198;2023-02-23T09:31:48;99332.28;;;35.51;10.66
50105;BME280;47690;39.202;-77.198;2023-02-23T09:34:38;99360.91;;;35.64;11.10
50105;BME280;47690;39.202;-77.198;2023-02-23T09:37:12;99358.41;;;35.63;10.52
50105;BME280;47690;39.202;-77.198;2023-02-23T09:39:44;99350.59;;;35.61;10.58
50105;BME280;47690;39.202;-77.198;2023-02-23T09:45:17;99363.13;;;35.74;10.96
50105;BME280;47690;39.202;-77.198;2023-02-23T09:50:41;99365.78;;;35.88;10.66
50105;BME280;47690;39.202;-77.198;2023-02-23T09:59:17;99373.13;;;35.99;10.74
50105;BME280;47690;39.202;-77.198;2023-02-23T10:05:04;99404.44;;;36.19;10.66
50105;BME280;47690;39.202;-77.198;2023-02-23T10:07:58;99393.88;;;36.24;10.90
50105;BME280;47690;39.202;-77.198;2023-02-23T10:16:36;99382.34;;;36.17;10.35
50105;BME280;47690;39.202;-77.198;2023-02-23T10:22:05;99376.41;;;36.15;10.91
50105;BME280;47690;39.202;-77.198;2023-02-23T10:24:47;99386.88;;;36.23;10.95
50105;BME280;47690;39.202;-77.198;2023-02-23T10:27:25;99383.78;;;36.26;10.71
50105;BME280;47690;39.202;-77.198;2023-02-23T10:30:29;99389.41;;;36.50;11.04
50105;BME280;47690;39.202;-77.198;2023-02-23T10:35:51;99420.84;;;36.36;10.50
50105;BME280;47690;39.202;-77.198;2023-02-23T10:38:48;99434.78;;;36.52;10.81
50105;BME280;47690;39.202;-77.198;2023-02-23T10:41:17;99472.19;;;36.40;10.49
50105;BME280;47690;39.202;-77.198;2023-02-23T10:43:49;99480.66;;;36.36;10.49
50105;BME280;47690;39.202;-77.198;2023-02-23T10:46:26;99443.72;;;36.39;10.77
50105;BME280;47690;39.202;-77.198;2023-02-23T10:49:16;99460.19;;;36.42;10.74
50105;BME280;47690;39.202;-77.198;2023-02-23T10:52:07;99460.38;;;36.54;10.36
50105;BME280;47690;39.202;-77.198;2023-02-23T10:54:49;99504.69;;;36.57;10.80
50105;BME280;47690;39.202;-77.198;2023-02-23T10:57:34;99466.13;;;36.65;10.55
50105;BME280;47690;39.202;-77.198;2023-02-23T11:02:50;99468.09;;;36.76;10.72
50105;BME280;47690;39.202;-77.198;2023-02-23T11:05:45;99460.44;;;36.80;10.74
50105;BME280;47690;39.202;-77.198;2023-02-23T11:08:37;99447.78;;;36.94;10.46
50105;BME280;47690;39.202;-77.198;2023-02-23T11:11:17;99422.69;;;37.07;10.55
50105;BME280;47690;39.202;-77.198;2023-02-23T11:13:52;99415.50;;;37.07;10.28
50105;BME280;47690;39.202;-77.198;2023-02-23T11:16:37;99443.53;;;37.11;10.87
50105;BME280;47690;39.202;-77.198;2023-02-23T11:19:33;99421.69;;;37.08;10.59
50105;BME280;47690;39.202;-77.198;2023-02-23T11:22:15;99440.13;;;36.97;10.43
50105;BME280;47690;39.202;-77.198;2023-02-23T11:24:53;99412.22;;;36.98;10.62
50105;BME280;47690;39.202;-77.198;2023-02-23T11:27:34;99409.00;;;36.89;10.43
50105;BME280;47690;39.202;-77.198;2023-02-23T11:30:11;99411.94;;;36.81;10.37
50105;BME280;47690;39.202;-77.198;2023-02-23T11:32:44;99425.09;;;36.89;10.69
50105;BME280;47690;39.202;-77.198;2023-02-23T11:35:32;99433.53;;;36.93;10.57
50105;BME280;47690;39.202;-77.198;2023-02-23T11:38:36;99440.53;;;37.26;10.53
50105;BME280;47690;39.202;-77.198;2023-02-23T11:41:22;99447.09;;;37.30;10.38
50105;BME280;47690;39.202;-77.198;2023-02-23T11:44:03;99431.50;;;37.21;10.70
50105;BME280;47690;39.202;-77.198;2023-02-23T11:46:37;99469.34;;;37.12;10.35
50105;BME280;47690;39.202;-77.198;2023-02-23T11:49:23;99457.91;;;37.24;10.93
50105;BME280;47690;39.202;-77.198;2023-02-23T11:52:03;99472.19;;;37.17;10.67
50105;BME280;47690;39.202;-77.198;2023-02-23T11:54:57;99476.13;;;37.15;10.47
50105;BME280;47690;39.202;-77.198;2023-02-23T11:57:36;99498.00;;;37.18;10.60
50105;BME280;47690;39.202;-77.198;2023-02-23T12:00:22;99496.09;;;37.26;10.56
50105;BME280;47690;39.202;-77.198;2023-02-23T12:03:11;99490.06;;;37.30;10.77
50105;BME280;47690;39.202;-77.198;2023-02-23T12:05:50;99491.75;;;37.25;10.84
50105;BME280;47690;39.202;-77.198;2023-02-23T12:08:46;99496.59;;;37.41;10.41
50105;BME280;47690;39.202;-77.198;2023-02-23T12:11:40;99521.59;;;37.42;10.67
50105;BME280;47690;39.202;-77.198;2023-02-23T12:14:39;99541.75;;;37.58;10.74
50105;BME280;47690;39.202;-77.198;2023-02-23T12:17:18;99529.97;;;37.52;10.48
50105;BME280;47690;39.202;-77.198;2023-02-23T12:20:34;99517.56;;;37.83;10.57
50105;BME280;47690;39.202;-77.198;2023-02-23T12:23:19;99549.28;;;37.68;10.76
50105;BME280;47690;39.202;-77.198;2023-02-23T12:26:10;99547.34;;;37.56;10.52
50105;BME280;47690;39.202;-77.198;2023-02-23T12:29:15;99565.75;;;37.78;10.50
50105;BME280;47690;39.202;-77.198;2023-02-23T12:32:01;99535.03;;;37.67;10.71
50105;BME280;47690;39.202;-77.198;2023-02-23T12:34:59;99554.28;;;37.64;10.47
50105;BME280;47690;39.202;-77.198;2023-02-23T12:37:54;99557.03;;;37.57;10.42
50105;BME280;47690;39.202;-77.198;2023-02-23T12:40:38;99553.84;;;37.67;10.52
50105;BME280;47690;39.202;-77.198;2023-02-23T12:43:18;99560.56;;;37.51;10.42
50105;BME280;47690;39.202;-77.198;2023-02-23T12:46:17;99588.94;;;37.72;10.58
50105;BME280;47690;39.202;-77.198;2023-02-23T12:49:10;99579.56;;;37.56;10.87
50105;BME280;47690;39.202;-77.198;2023-02-23T12:51:59;99582.25;;;37.56;10.92
50105;BME280;47690;39.202;-77.198;2023-02-23T12:54:39;99593.81;;;37.50;10.69
50105;BME280;47690;39.202;-77.198;2023-02-23T12:57:23;99605.75;;;37.61;10.67
50105;BME280;47690;39.202;-77.198;2023-02-23T13:18:02;99632.38;;;38.64;10.26
50105;BME280;47690;39.202;-77.198;2023-02-23T13:23:49;99626.47;;;38.56;10.25
50105;BME280;47690;39.202;-77.198;2023-02-23T13:29:49;99649.66;;;38.57;10.56
50105;BME280;47690;39.202;-77.198;2023-02-23T13:32:37;99661.47;;;38.56;10.50
50105;BME280;47690;39.202;-77.198;2023-02-23T13:35:18;99677.81;;;38.54;10.67
50105;BME280;47690;39.202;-77.198;2023-02-23T13:45:26;99694.28;;;38.83;10.76
50105;BME280;47690;39.202;-77.198;2023-02-23T13:50:53;99683.97;;;39.17;10.15
50105;BME280;47690;39.202;-77.198;2023-02-23T13:53:43;99675.84;;;39.36;10.09
50105;BME280;47690;39.202;-77.198;2023-02-23T13:56:20;99673.94;;;39.55;9.73
50105;BME280;47690;39.202;-77.198;2023-02-23T13:59:15;99661.66;;;39.59;10.21
50105;BME280;47690;39.202;-77.198;2023-02-23T14:01:53;99660.22;;;39.26;10.08
50105;BME280;47690;39.202;-77.198;2023-02-23T14:04:41;99665.13;;;39.91;9.99
50105;BME280;47690;39.202;-77.198;2023-02-23T14:07:31;99652.69;;;39.78;10.25
50105;BME280;47690;39.202;-77.198;2023-02-23T14:10:08;99655.19;;;39.48;10.39
50105;BME280;47690;39.202;-77.198;2023-02-23T14:19:08;99667.97;;;39.96;9.93
50105;BME280;47690;39.202;-77.198;2023-02-23T14:21:50;99661.31;;;40.10;9.87
50105;BME280;47690;39.202;-77.198;2023-02-23T14:28:38;99658.09;;;40.85;9.42
50105;BME280;47690;39.202;-77.198;2023-02-23T14:31:18;99645.34;;;40.68;9.79
50105;BME280;47690;39.202;-77.198;2023-02-23T14:34:08;99642.97;;;40.60;9.41
50105;BME280;47690;39.202;-77.198;2023-02-23T14:37:18;99628.16;;;40.75;9.67
50105;BME280;47690;39.202;-77.198;2023-02-23T14:40:22;99625.13;;;40.71;9.84
50105;BME280;47690;39.202;-77.198;2023-02-23T14:46:22;99642.63;;;40.80;9.80
50105;BME280;47690;39.202;-77.198;2023-02-23T14:49:17;99629.66;;;40.94;9.76
50105;BME280;47690;39.202;-77.198;2023-02-23T14:51:55;99628.25;;;40.92;9.54
50105;BME280;47690;39.202;-77.198;2023-02-23T14:54:38;99629.72;;;41.12;9.20
50105;BME280;47690;39.202;-77.198;2023-02-23T14:57:25;99644.06;;;41.12;9.74
50105;BME280;47690;39.202;-77.198;2023-02-23T15:00:43;99641.97;;;41.02;9.92
50105;BME280;47690;39.202;-77.198;2023-02-23T15:03:13;99648.97;;;41.15;9.44
50105;BME280;47690;39.202;-77.198;2023-02-23T15:05:57;99653.13;;;41.06;9.77
50105;BME280;47690;39.202;-77.198;2023-02-23T15:08:45;99635.19;;;41.29;9.47
50105;BME280;47690;39.202;-77.198;2023-02-23T15:11:21;99650.91;;;41.32;9.37
50105;BME280;47690;39.202;-77.198;2023-02-23T15:14:05;99654.47;;;41.49;9.58
50105;BME280;47690;39.202;-77.198;2023-02-23T15:17:02;99653.44;;;41.68;9.24
50105;BME280;47690;39.202;-77.198;2023-02-23T15:19:46;99650.47;;;41.69;9.63
50105;BME280;47690;39.202;-77.198;2023-02-23T15:22:32;99645.03;;;41.52;9.33
50105;BME280;47690;39.202;-77.198;2023-02-23T15:25:17;99648.19;;;41.78;9.78
50105;BME280;47690;39.202;-77.198;2023-02-23T15:27:53;99643.94;;;41.82;9.56
50105;BME280;47690;39.202;-77.198;2023-02-23T15:30:33;99662.78;;;41.94;9.53
50105;BME280;47690;39.202;-77.198;2023-02-23T15:33:14;99660.47;;;42.20;9.35
50105;BME280;47690;39.202;-77.198;2023-02-23T15:36:15;99668.38;;;42.44;9.65
50105;BME280;47690;39.202;-77.198;2023-02-23T15:39:03;99669.38;;;42.77;9.49
50105;BME280;47690;39.202;-77.198;2023-02-23T15:41:36;99670.28;;;43.33;9.35
50105;BME280;47690;39.202;-77.198;2023-02-23T15:44:22;99658.28;;;44.21;8.85
50105;BME280;47690;39.202;-77.198;2023-02-23T15:47:21;99663.03;;;45.00;8.87
50105;BME280;47690;39.202;-77.198;2023-02-23T15:50:22;99667.69;;;45.31;8.84
50105;BME280;47690;39.202;-77.198;2023-02-23T15:53:21;99668.25;;;45.33;8.49
50105;BME280;47690;39.202;-77.198;2023-02-23T15:56:22;99676.19;;;45.81;8.99
50105;BME280;47690;39.202;-77.198;2023-02-23T15:59:07;99668.78;;;46.29;8.28
50105;BME280;47690;39.202;-77.198;2023-02-23T16:01:52;99671.16;;;46.51;8.10
50105;BME280;47690;39.202;-77.198;2023-02-23T16:04:36;99680.97;;;46.52;8.32
50105;BME280;47690;39.202;-77.198;2023-02-23T16:07:22;99673.78;;;46.77;7.86
50105;BME280;47690;39.202;-77.198;2023-02-23T16:10:22;99673.28;;;46.70;8.08
50105;BME280;47690;39.202;-77.198;2023-02-23T16:13:10;99686.47;;;46.31;8.58
50105;BME280;47690;39.202;-77.198;2023-02-23T16:15:46;99687.03;;;46.02;8.86
50105;BME280;47690;39.202;-77.198;2023-02-23T16:18:39;99691.34;;;46.19;8.87
50105;BME280;47690;39.202;-77.198;2023-02-23T16:21:18;99694.09;;;46.19;8.87
50105;BME280;47690;39.202;-77.198;2023-02-23T16:24:08;99682.38;;;47.85;7.92
50105;BME280;47690;39.202;-77.198;2023-02-23T16:26:49;99692.00;;;46.87;8.09
50105;BME280;47690;39.202;-77.198;2023-02-23T16:29:41;99690.72;;;46.63;8.26
50105;BME280;47690;39.202;-77.198;2023-02-23T16:32:19;99692.41;;;46.59;8.62
50105;BME280;47690;39.202;-77.198;2023-02-23T16:35:32;99690.38;;;46.81;8.75
50105;BME280;47690;39.202;-77.198;2023-02-23T16:38:14;99682.53;;;46.74;8.25
50105;BME280;47690;39.202;-77.198;2023-02-23T16:40:53;99690.19;;;46.61;8.38
50105;BME280;47690;39.202;-77.198;2023-02-23T16:43:38;99681.97;;;46.72;8.71
50105;BME280;47690;39.202;-77.198;2023-02-23T16:46:12;99684.16;;;46.75;8.54